createdAt,value
2017-09-08T00:00:05.092Z,22.30
2017-09-08T00:02:32.687Z,16.63
2017-09-08T00:05:00.157Z,13.43
2017-09-08T00:07:27.667Z,20.23
2017-09-08T00:09:55.231Z,11.57
2017-09-08T00:12:22.699Z,22.63
2017-09-08T00:14:50.940Z,14.30
2017-09-08T00:17:18.409Z,27.20
2017-09-08T00:19:45.874Z,19.83
2017-09-08T00:22:13.438Z,20.90
2017-09-08T00:24:41.698Z,18.57
2017-09-08T00:27:09.171Z,20.10
2017-09-08T00:29:37.443Z,24.87
2017-09-08T00:32:04.900Z,25.13
2017-09-08T00:34:33.168Z,29.00
2017-09-08T00:37:00.631Z,27.27
2017-09-08T00:39:29.819Z,24.23
2017-09-08T00:41:57.285Z,26.90
2017-09-08T00:44:25.551Z,21.30
2017-09-08T00:46:53.088Z,30.37
2017-09-08T00:49:20.567Z,14.20
2017-09-08T00:51:49.367Z,18.73
2017-09-08T00:54:17.595Z,22.67
2017-09-08T00:56:45.095Z,14.67
2017-09-08T00:59:13.332Z,18.27
2017-09-08T01:01:41.215Z,15.97
2017-09-08T01:04:08.700Z,20.00
2017-09-08T01:06:36.927Z,17.87
2017-09-08T01:09:04.414Z,15.57
2017-09-08T01:11:31.911Z,20.27
2017-09-08T01:13:59.449Z,26.50
2017-09-08T01:16:27.677Z,15.30
2017-09-08T01:18:55.143Z,21.63
2017-09-08T01:21:22.603Z,21.13
2017-09-08T01:23:50.062Z,28.07
2017-09-08T01:26:17.643Z,16.37
2017-09-08T01:28:45.885Z,25.40
2017-09-08T01:31:13.359Z,18.03
2017-09-08T01:33:40.865Z,17.70
2017-09-08T01:36:08.319Z,18.47
2017-09-08T01:38:35.848Z,16.50
2017-09-08T01:41:04.137Z,20.63
2017-09-08T01:43:32.391Z,21.47
2017-09-08T01:45:59.960Z,20.07
2017-09-08T01:48:28.206Z,18.37
2017-09-08T01:50:55.692Z,17.43
2017-09-08T01:53:23.148Z,13.37
2017-09-08T01:55:50.623Z,27.10
2017-09-08T01:58:18.856Z,20.47
2017-09-08T02:00:46.319Z,31.07
2017-09-08T02:03:13.801Z,22.87
2017-09-08T02:05:43.041Z,20.40
2017-09-08T02:08:10.503Z,25.10
2017-09-08T02:10:37.971Z,20.77
2017-09-08T02:13:05.452Z,22.03
2017-09-08T02:15:33.806Z,20.83
2017-09-08T02:18:01.297Z,15.93
2017-09-08T02:20:28.765Z,25.50
2017-09-08T02:22:57.005Z,25.10
2017-09-08T02:25:24.475Z,23.97
2017-09-08T02:27:51.975Z,19.70
2017-09-08T02:30:19.434Z,14.57
2017-09-08T02:32:46.914Z,23.93
2017-09-08T02:35:14.396Z,24.30
2017-09-08T02:37:41.877Z,17.00
2017-09-08T02:40:10.149Z,15.63
2017-09-08T02:42:38.381Z,20.83
2017-09-08T02:45:05.827Z,23.10
2017-09-08T02:47:33.310Z,14.33
2017-09-08T02:50:00.763Z,17.77
2017-09-08T02:52:28.237Z,22.80
2017-09-08T02:54:56.776Z,16.33
2017-09-08T02:57:24.231Z,17.07
2017-09-08T02:59:51.696Z,17.50
2017-09-08T03:02:19.168Z,23.80
2017-09-08T03:04:46.626Z,31.73
2017-09-08T03:07:14.091Z,19.60
2017-09-08T03:09:41.560Z,19.03
2017-09-08T03:12:09.032Z,16.97
2017-09-08T03:14:37.265Z,28.70
2017-09-08T03:17:04.759Z,20.03
2017-09-08T03:19:33.355Z,20.37
2017-09-08T03:22:01.164Z,18.33
2017-09-08T03:24:28.640Z,18.87
2017-09-08T03:26:56.103Z,22.53
2017-09-08T03:29:23.583Z,17.70
2017-09-08T03:31:51.827Z,19.73
2017-09-08T03:34:19.292Z,31.67
2017-09-08T03:36:46.756Z,30.53
2017-09-08T03:39:14.232Z,26.70
2017-09-08T03:41:42.454Z,20.93
2017-09-08T03:44:09.911Z,27.47
2017-09-08T03:46:37.391Z,33.87
2017-09-08T03:49:04.863Z,37.83
2017-09-08T03:51:32.324Z,25.97
2017-09-08T03:54:00.596Z,26.00
2017-09-08T03:56:28.056Z,24.73
2017-09-08T03:58:56.292Z,27.50
2017-09-08T04:01:23.812Z,22.40
2017-09-08T04:03:51.320Z,25.63
2017-09-08T04:06:18.827Z,27.63
2017-09-08T04:08:46.302Z,22.93
2017-09-08T04:11:13.771Z,24.10
2017-09-08T04:13:41.236Z,20.53
2017-09-08T04:16:08.774Z,19.40
2017-09-08T04:18:36.236Z,16.60
2017-09-08T04:21:03.758Z,15.60
2017-09-08T04:23:32.005Z,16.70
2017-09-08T04:26:00.304Z,14.60
2017-09-08T04:28:28.559Z,19.73
2017-09-08T04:30:56.031Z,26.67
2017-09-08T04:33:24.632Z,21.93
2017-09-08T04:35:52.468Z,24.00
2017-09-08T04:38:19.938Z,22.43
2017-09-08T04:40:48.225Z,22.80
2017-09-08T04:43:15.662Z,28.50
2017-09-08T04:45:43.140Z,27.80
2017-09-08T04:48:11.363Z,26.97
2017-09-08T04:50:38.831Z,26.70
2017-09-08T04:53:06.309Z,25.77
2017-09-08T04:55:33.771Z,24.67
2017-09-08T04:58:02.001Z,23.60
2017-09-08T05:00:29.478Z,28.43
2017-09-08T05:02:56.967Z,23.23
2017-09-08T05:05:25.204Z,26.17
2017-09-08T05:07:52.713Z,30.67
2017-09-08T05:10:20.950Z,25.07
2017-09-08T05:12:48.645Z,26.40
2017-09-08T05:15:16.882Z,25.87
2017-09-08T05:17:44.348Z,24.23
2017-09-08T05:20:11.904Z,27.20
2017-09-08T05:22:39.400Z,22.40
2017-09-08T05:25:06.916Z,30.53
2017-09-08T05:27:34.375Z,31.43
2017-09-08T05:30:01.850Z,25.90
2017-09-08T05:32:30.112Z,25.07
2017-09-08T05:34:57.681Z,32.00
2017-09-08T05:37:25.927Z,24.53
2017-09-08T05:39:53.395Z,23.90
2017-09-08T05:42:21.217Z,23.90
2017-09-08T05:44:48.696Z,20.00
2017-09-08T05:47:16.164Z,15.97
2017-09-08T05:49:43.645Z,24.57
2017-09-08T05:52:12.208Z,16.53
2017-09-08T05:54:40.703Z,14.13
2017-09-08T05:57:08.979Z,17.30
2017-09-08T05:59:36.457Z,18.20
2017-09-08T06:02:04.694Z,20.03
2017-09-08T06:04:32.305Z,20.50
2017-09-08T06:06:59.784Z,21.60
2017-09-08T06:09:27.267Z,28.77
2017-09-08T06:11:54.789Z,16.87
2017-09-08T06:14:22.256Z,18.50
2017-09-08T06:16:49.730Z,18.73
2017-09-08T06:19:17.184Z,14.70
2017-09-08T06:21:44.682Z,11.73
2017-09-08T06:24:12.941Z,19.90
2017-09-08T06:26:40.412Z,12.83
2017-09-08T06:29:08.975Z,21.23
2017-09-08T06:31:36.538Z,18.33
2017-09-08T06:34:03.994Z,15.60
2017-09-08T06:36:32.572Z,16.70
2017-09-08T06:39:00.036Z,14.20
2017-09-08T06:41:27.491Z,17.07
2017-09-08T06:43:55.051Z,18.00
2017-09-08T06:46:22.553Z,19.97
2017-09-08T06:48:50.019Z,12.40
2017-09-08T06:51:17.523Z,13.37
2017-09-08T06:53:45.087Z,17.27
2017-09-08T06:56:13.311Z,18.73
2017-09-08T06:58:40.783Z,16.73
2017-09-08T07:01:08.632Z,16.47
2017-09-08T07:03:36.120Z,14.33
2017-09-08T07:06:03.588Z,14.40
2017-09-08T07:08:31.060Z,15.13
2017-09-08T07:10:58.612Z,12.73
2017-09-08T07:13:26.084Z,16.00
2017-09-08T07:15:54.346Z,16.33
2017-09-08T07:18:22.670Z,18.70
2017-09-08T07:20:50.163Z,12.33
2017-09-08T07:23:17.623Z,13.03
2017-09-08T07:25:45.108Z,16.70
2017-09-08T07:28:13.363Z,13.30
2017-09-08T07:30:40.923Z,9.50
2017-09-08T07:33:08.476Z,11.10
2017-09-08T07:35:35.988Z,12.97
2017-09-08T07:38:03.465Z,10.30
2017-09-08T07:40:30.927Z,11.60
2017-09-08T07:42:58.407Z,15.00
2017-09-08T07:45:25.865Z,15.17
2017-09-08T07:47:53.318Z,12.20
2017-09-08T07:50:20.796Z,7.90
2017-09-08T07:52:49.028Z,10.77
2017-09-08T07:55:16.489Z,19.70
2017-09-08T07:57:43.964Z,9.97
2017-09-08T08:00:11.423Z,10.03
2017-09-08T08:02:38.884Z,15.07
2017-09-08T08:05:07.138Z,8.83
2017-09-08T08:07:34.588Z,10.73
2017-09-08T08:10:02.051Z,11.67
2017-09-08T08:12:29.522Z,8.73
2017-09-08T08:14:56.982Z,7.37
2017-09-08T08:17:24.445Z,11.60
2017-09-08T08:19:51.938Z,7.17
2017-09-08T08:22:19.406Z,7.10
2017-09-08T08:24:46.898Z,8.67
2017-09-08T08:27:14.368Z,6.97
2017-09-08T08:29:42.643Z,9.30
2017-09-08T08:32:10.190Z,4.87
2017-09-08T08:34:37.666Z,4.70
2017-09-08T08:37:05.927Z,13.53
2017-09-08T08:39:33.383Z,5.43
2017-09-08T08:42:00.935Z,9.43
2017-09-08T08:44:28.403Z,9.20
2017-09-08T08:46:55.867Z,7.83
2017-09-08T08:49:24.127Z,6.30
2017-09-08T08:51:51.619Z,9.20
2017-09-08T08:54:19.080Z,7.80
2017-09-08T08:56:46.640Z,6.70
2017-09-08T08:59:14.166Z,6.30
2017-09-08T09:01:41.628Z,5.30
2017-09-08T09:04:09.381Z,7.73
2017-09-08T09:06:36.835Z,7.77
2017-09-08T09:09:04.300Z,4.37
2017-09-08T09:11:32.055Z,6.50
2017-09-08T09:13:59.512Z,8.53
2017-09-08T09:16:26.977Z,5.87
2017-09-08T09:18:54.533Z,10.77
2017-09-08T09:21:22.508Z,4.40
2017-09-08T09:23:50.166Z,4.63
2017-09-08T09:26:17.920Z,9.27
2017-09-08T09:28:45.382Z,5.50
2017-09-08T09:31:12.837Z,5.97
2017-09-08T09:33:40.312Z,5.10
2017-09-08T09:36:08.530Z,7.30
2017-09-08T09:38:35.992Z,6.33
2017-09-08T09:41:03.456Z,4.60
2017-09-08T09:43:30.920Z,7.30
2017-09-08T09:45:58.376Z,4.50
2017-09-08T09:48:25.846Z,6.10
2017-09-08T09:50:53.311Z,13.57
2017-09-08T09:53:20.768Z,8.70
2017-09-08T09:55:48.322Z,6.23
2017-09-08T09:58:16.839Z,7.40
2017-09-08T10:00:45.059Z,4.27
2017-09-08T10:03:12.527Z,4.47
2017-09-08T10:05:40.207Z,5.37
2017-09-08T10:08:08.442Z,7.77
2017-09-08T10:10:35.940Z,6.10
2017-09-08T10:13:04.173Z,5.43
2017-09-08T10:15:31.627Z,7.50
2017-09-08T10:17:59.099Z,7.70
2017-09-08T10:20:26.562Z,11.10
2017-09-08T10:22:54.131Z,6.47
2017-09-08T10:25:21.793Z,8.97
2017-09-08T10:27:49.352Z,5.97
2017-09-08T10:30:16.816Z,6.97
2017-09-08T10:32:44.317Z,7.50
2017-09-08T10:35:11.798Z,10.30
2017-09-08T10:37:39.392Z,9.43
2017-09-08T10:40:06.868Z,11.60
2017-09-08T10:42:35.145Z,6.23
2017-09-08T10:45:03.491Z,11.50
2017-09-08T10:47:31.003Z,9.60
2017-09-08T10:49:58.487Z,8.43
2017-09-08T10:52:25.969Z,8.90
2017-09-08T10:54:53.524Z,7.70
2017-09-08T10:57:21.087Z,7.87
2017-09-08T10:59:48.539Z,8.53
2017-09-08T11:02:16.299Z,5.60
2017-09-08T11:04:43.868Z,7.23
2017-09-08T11:07:12.105Z,6.90
2017-09-08T11:09:39.896Z,8.30
2017-09-08T11:12:07.432Z,4.40
2017-09-08T11:14:34.897Z,7.73
2017-09-08T11:17:02.472Z,4.63
2017-09-08T11:19:29.936Z,8.27
2017-09-08T11:21:57.391Z,6.43
2017-09-08T11:24:25.630Z,5.53
2017-09-08T11:26:53.123Z,5.90
2017-09-08T11:29:20.585Z,7.73
2017-09-08T11:31:48.814Z,6.00
2017-09-08T11:34:21.924Z,9.93
2017-09-08T11:36:55.199Z,5.23
2017-09-08T11:39:22.658Z,8.30
2017-09-08T11:41:50.123Z,8.87
2017-09-08T11:44:17.600Z,6.77
2017-09-08T11:46:45.068Z,12.43
2017-09-08T11:49:13.297Z,7.67
2017-09-08T11:51:40.780Z,8.23
2017-09-08T11:54:08.998Z,4.13
2017-09-08T11:56:37.236Z,5.07
2017-09-08T11:59:04.729Z,6.27
2017-09-08T12:01:32.246Z,6.20
2017-09-08T12:03:59.747Z,5.37
2017-09-08T12:06:27.582Z,11.17
2017-09-08T12:08:56.244Z,10.67
2017-09-08T12:11:23.708Z,5.63
2017-09-08T12:13:51.517Z,5.57
2017-09-08T12:16:18.979Z,5.70
2017-09-08T12:18:46.442Z,3.80
2017-09-08T12:21:14.172Z,5.03
2017-09-08T12:23:42.414Z,7.07
2017-09-08T12:26:09.878Z,6.33
2017-09-08T12:28:37.365Z,10.40
2017-09-08T12:31:05.604Z,4.43
2017-09-08T12:33:33.060Z,3.57
2017-09-08T12:36:00.532Z,4.23
2017-09-08T12:38:28.005Z,4.83
2017-09-08T12:40:56.231Z,6.00
2017-09-08T12:43:23.699Z,10.63
2017-09-08T12:45:51.160Z,5.73
2017-09-08T12:48:18.620Z,5.70
2017-09-08T12:50:46.087Z,8.10
2017-09-08T12:53:13.560Z,9.90
2017-09-08T12:55:41.791Z,6.27
2017-09-08T12:58:09.265Z,5.63
2017-09-08T13:00:38.137Z,5.33
2017-09-08T13:03:05.595Z,3.37
2017-09-08T13:05:33.263Z,4.80
2017-09-08T13:08:00.724Z,3.47
2017-09-08T13:10:28.188Z,4.43
2017-09-08T13:12:55.660Z,5.90
2017-09-08T13:15:23.168Z,2.80
2017-09-08T13:17:50.632Z,8.83
2017-09-08T13:20:18.100Z,4.07
2017-09-08T13:22:45.568Z,5.27
2017-09-08T13:25:13.024Z,4.87
2017-09-08T13:27:40.493Z,3.73
2017-09-08T13:30:07.955Z,2.63
2017-09-08T13:32:35.416Z,3.97
2017-09-08T13:35:03.656Z,5.13
2017-09-08T13:37:31.172Z,4.87
2017-09-08T13:39:58.660Z,6.60
2017-09-08T13:42:26.132Z,4.03
2017-09-08T13:44:53.607Z,7.97
2017-09-08T13:47:21.087Z,4.30
2017-09-08T13:49:49.356Z,6.37
2017-09-08T13:52:16.812Z,5.60
2017-09-08T13:54:45.046Z,4.37
2017-09-08T13:57:12.528Z,4.87
2017-09-08T13:59:40.003Z,6.57
2017-09-08T14:02:08.272Z,5.80
2017-09-08T14:04:36.546Z,4.43
2017-09-08T14:07:04.101Z,4.23
2017-09-08T14:09:31.592Z,6.53
2017-09-08T14:11:59.060Z,4.40
2017-09-08T14:14:26.529Z,5.20
2017-09-08T14:16:54.676Z,6.20
2017-09-08T14:19:22.926Z,4.00
2017-09-08T14:21:50.391Z,5.00
2017-09-08T14:24:18.627Z,4.07
2017-09-08T14:26:46.710Z,2.50
2017-09-08T14:29:14.186Z,5.63
2017-09-08T14:31:41.746Z,5.60
2017-09-08T14:34:09.207Z,5.87
2017-09-08T14:36:37.434Z,6.77
2017-09-08T14:39:04.920Z,10.80
2017-09-08T14:41:33.157Z,7.83
2017-09-08T14:44:00.645Z,8.77
2017-09-08T14:46:28.099Z,4.73
2017-09-08T14:48:56.621Z,5.97
2017-09-08T14:51:24.852Z,4.73
2017-09-08T14:53:52.314Z,4.70
2017-09-08T14:56:20.076Z,7.00
2017-09-08T14:58:47.719Z,18.87
2017-09-08T15:01:15.247Z,9.43
2017-09-08T15:03:43.599Z,14.13
2017-09-08T15:06:11.145Z,6.83
2017-09-08T15:08:39.419Z,7.60
2017-09-08T15:11:06.930Z,11.80
2017-09-08T15:13:34.391Z,11.20
2017-09-08T15:16:02.018Z,8.13
2017-09-08T15:18:30.378Z,5.20
2017-09-08T15:20:57.917Z,5.67
2017-09-08T15:23:25.389Z,6.53
2017-09-08T15:25:52.857Z,9.53
2017-09-08T15:28:21.085Z,11.60
2017-09-08T15:30:48.540Z,11.90
2017-09-08T15:33:16.020Z,14.90
2017-09-08T15:35:43.512Z,11.20
2017-09-08T15:38:11.066Z,2.90
2017-09-08T15:40:38.698Z,2.20
2017-09-08T15:43:06.172Z,4.37
2017-09-08T15:45:33.623Z,2.53
2017-09-08T15:48:01.100Z,2.90
2017-09-08T15:50:29.339Z,9.60
2017-09-08T15:52:56.812Z,2.20
2017-09-08T15:55:24.295Z,2.07
2017-09-08T15:57:52.516Z,9.47
2017-09-08T16:00:20.002Z,4.07
2017-09-08T16:02:47.463Z,5.20
2017-09-08T16:05:15.790Z,5.30
2017-09-08T16:07:43.336Z,9.40
2017-09-08T16:10:10.809Z,4.80
2017-09-08T16:12:38.267Z,8.43
2017-09-08T16:15:05.768Z,5.00
2017-09-08T16:17:34.105Z,6.27
2017-09-08T16:20:01.615Z,6.70
2017-09-08T16:22:29.839Z,8.80
2017-09-08T16:24:57.309Z,3.40
2017-09-08T16:27:24.791Z,6.30
2017-09-08T16:29:52.276Z,8.83
2017-09-08T16:32:19.760Z,10.73
2017-09-08T16:34:47.235Z,14.80
2017-09-08T16:37:14.721Z,14.33
2017-09-08T16:39:42.971Z,6.73
2017-09-08T16:42:10.445Z,5.30
2017-09-08T16:44:37.920Z,7.07
2017-09-08T16:47:06.163Z,4.40
2017-09-08T16:49:33.619Z,5.93
2017-09-08T16:52:01.092Z,7.10
2017-09-08T16:54:28.562Z,5.77
2017-09-08T16:56:56.783Z,6.67
2017-09-08T16:59:24.288Z,3.43
2017-09-08T17:01:51.761Z,5.97
2017-09-08T17:04:19.996Z,7.43
2017-09-08T17:06:47.455Z,9.00
2017-09-08T17:09:14.948Z,6.70
2017-09-08T17:11:43.197Z,10.10
2017-09-08T17:14:10.661Z,10.53
2017-09-08T17:16:38.123Z,5.03
2017-09-08T17:19:06.347Z,8.53
2017-09-08T17:21:33.803Z,6.07
2017-09-08T17:24:03.363Z,5.30
2017-09-08T17:26:31.608Z,5.60
2017-09-08T17:28:59.080Z,5.40
2017-09-08T17:31:26.560Z,10.63
2017-09-08T17:33:54.835Z,11.70
2017-09-08T17:36:23.052Z,5.43
2017-09-08T17:38:50.523Z,13.30
2017-09-08T17:41:17.984Z,10.53
2017-09-08T17:43:45.439Z,5.63
2017-09-08T17:46:12.968Z,7.20
2017-09-08T17:48:40.427Z,10.53
2017-09-08T17:51:07.903Z,9.47
2017-09-08T17:53:35.387Z,7.13
2017-09-08T17:56:02.839Z,7.70
2017-09-08T17:58:30.294Z,7.07
2017-09-08T18:00:57.808Z,8.83
2017-09-08T18:03:25.293Z,8.30
2017-09-08T18:05:52.788Z,9.53
2017-09-08T18:08:20.267Z,5.50
2017-09-08T18:10:47.788Z,7.27
2017-09-08T18:13:15.249Z,6.30
2017-09-08T18:15:43.491Z,9.10
2017-09-08T18:18:10.949Z,4.30
2017-09-08T18:20:38.413Z,5.73
2017-09-08T18:23:05.890Z,3.63
2017-09-08T18:25:34.119Z,5.50
2017-09-08T18:28:01.615Z,3.93
2017-09-08T18:30:29.076Z,9.87
2017-09-08T18:32:56.539Z,4.43
2017-09-08T18:35:24.008Z,7.13
2017-09-08T18:37:52.242Z,8.60
2017-09-08T18:40:19.707Z,8.50
2017-09-08T18:42:47.172Z,4.97
2017-09-08T18:45:14.649Z,5.43
2017-09-08T18:47:42.116Z,7.80
2017-09-08T18:50:10.353Z,6.27
2017-09-08T18:52:37.876Z,4.97
2017-09-08T18:55:05.345Z,10.50
2017-09-08T18:57:32.831Z,5.13
2017-09-08T19:00:00.596Z,8.67
2017-09-08T19:02:28.065Z,9.90
2017-09-08T19:04:56.325Z,7.93
2017-09-08T19:07:24.092Z,13.77
2017-09-08T19:09:51.572Z,7.63
2017-09-08T19:12:19.040Z,14.83
2017-09-08T19:14:46.526Z,12.10
2017-09-08T19:17:13.991Z,10.03
2017-09-08T19:19:41.460Z,10.50
2017-09-08T19:22:08.936Z,9.27
2017-09-08T19:24:36.426Z,10.73
2017-09-08T19:27:03.884Z,7.63
2017-09-08T19:29:31.359Z,17.53
2017-09-08T19:31:58.824Z,6.40
2017-09-08T19:34:26.306Z,3.57
2017-09-08T19:36:54.580Z,3.93
2017-09-08T19:39:22.044Z,2.13
2017-09-08T19:41:49.500Z,4.93
2017-09-08T19:44:16.972Z,3.97
2017-09-08T19:46:45.234Z,5.97
2017-09-08T19:49:12.720Z,5.87
2017-09-08T19:51:40.187Z,3.50
2017-09-08T19:54:08.407Z,3.33
2017-09-08T19:56:35.896Z,3.83
2017-09-08T19:59:04.133Z,3.60
2017-09-08T20:01:31.611Z,3.47
2017-09-08T20:03:59.087Z,4.40
2017-09-08T20:06:26.584Z,2.40
2017-09-08T20:08:54.056Z,6.20
2017-09-08T20:11:21.525Z,7.80
2017-09-08T20:13:49.010Z,2.60
2017-09-08T20:16:16.480Z,9.10
2017-09-08T20:18:44.713Z,14.33
2017-09-08T20:21:12.224Z,20.07
2017-09-08T20:23:39.682Z,10.20
2017-09-08T20:26:07.163Z,7.70
2017-09-08T20:28:34.641Z,13.43
2017-09-08T20:31:02.103Z,13.77
2017-09-08T20:33:29.569Z,18.03
2017-09-08T20:35:57.061Z,12.20
2017-09-08T20:38:25.296Z,15.03
2017-09-08T20:40:52.800Z,12.53
2017-09-08T20:43:20.280Z,10.53
2017-09-08T20:45:47.744Z,10.30
2017-09-08T20:48:15.213Z,15.13
2017-09-08T20:50:42.692Z,26.67
2017-09-08T20:53:10.168Z,16.73
2017-09-08T20:55:38.395Z,9.07
2017-09-08T20:58:05.877Z,24.40
2017-09-08T21:00:33.336Z,10.47
2017-09-08T21:03:00.876Z,12.47
2017-09-08T21:05:28.471Z,12.83
2017-09-08T21:07:56.730Z,17.00
2017-09-08T21:10:24.291Z,14.03
2017-09-08T21:12:51.772Z,11.37
2017-09-08T21:15:19.308Z,22.70
2017-09-08T21:17:46.860Z,11.63
2017-09-08T21:20:14.576Z,17.30
2017-09-08T21:22:42.816Z,11.90
2017-09-08T21:25:10.309Z,17.03
2017-09-08T21:27:37.815Z,15.20
2017-09-08T21:30:05.276Z,21.03
2017-09-08T21:32:32.917Z,16.10
2017-09-08T21:35:00.426Z,14.93
2017-09-08T21:37:28.627Z,20.80
2017-09-08T21:39:56.121Z,11.33
2017-09-08T21:42:23.599Z,23.33
2017-09-08T21:44:51.860Z,13.80
2017-09-08T21:47:19.322Z,29.20
2017-09-08T21:49:47.563Z,14.73
2017-09-08T21:52:15.828Z,24.03
2017-09-08T21:54:43.315Z,24.73
2017-09-08T21:57:10.785Z,15.23
2017-09-08T21:59:39.065Z,18.07
2017-09-08T22:02:07.295Z,12.80
2017-09-08T22:04:34.780Z,23.90
2017-09-08T22:07:02.247Z,15.53
2017-09-08T22:09:30.477Z,20.07
2017-09-08T22:11:58.004Z,20.47
2017-09-08T22:14:25.533Z,17.93
2017-09-08T22:16:54.403Z,15.53
2017-09-08T22:19:21.883Z,18.80
2017-09-08T22:21:49.405Z,22.27
2017-09-08T22:24:17.567Z,25.70
2017-09-08T22:26:45.048Z,13.17
2017-09-08T22:29:12.990Z,15.00
2017-09-08T22:31:40.455Z,18.20
2017-09-08T22:34:07.936Z,17.93
2017-09-08T22:36:35.509Z,12.93
2017-09-08T22:39:03.066Z,15.60
2017-09-08T22:41:30.539Z,16.83
2017-09-08T22:43:58.759Z,26.70
2017-09-08T22:46:26.232Z,22.53
2017-09-08T22:48:53.728Z,19.50
2017-09-08T22:51:21.962Z,19.67
2017-09-08T22:53:49.427Z,13.10
2017-09-08T22:56:16.918Z,26.57
2017-09-08T22:58:45.151Z,14.67
2017-09-08T23:01:12.639Z,20.33
2017-09-08T23:03:40.876Z,12.37
2017-09-08T23:06:08.360Z,14.00
2017-09-08T23:08:35.831Z,12.07
2017-09-08T23:11:04.398Z,22.67
2017-09-08T23:13:31.879Z,19.20
2017-09-08T23:16:00.134Z,16.80
2017-09-08T23:18:27.604Z,16.97
2017-09-08T23:20:55.842Z,16.73
2017-09-08T23:23:23.328Z,11.30
2017-09-08T23:25:50.880Z,21.17
2017-09-08T23:28:18.341Z,11.57
2017-09-08T23:30:45.813Z,20.10
2017-09-08T23:33:14.757Z,20.73
2017-09-08T23:35:42.249Z,27.00
2017-09-08T23:38:09.733Z,16.87
2017-09-08T23:40:37.251Z,20.80
2017-09-08T23:43:04.723Z,20.57
2017-09-08T23:45:32.952Z,15.83
2017-09-08T23:48:00.432Z,26.13
2017-09-08T23:50:27.896Z,22.93
2017-09-08T23:52:55.355Z,15.40
2017-09-08T23:55:22.919Z,21.17
2017-09-08T23:57:51.012Z,18.77
